Terminal Aerodrome Forecast
Issued by NWS Sterling, VA

Current Version | Previous Version | Text Only | Print | Product List | Glossary Off
Versions: 1 2 3 4 5 6 7 8 9 10 11 12 13 14 15 16 17 18 19 20 21

192
FTUS41 KLWX 070530
TAFMRB
TAF
KMRB 070530Z 0706/0806 VRB03KT 3SM BR BKN004 OVC015
     FM070800 VRB03KT 3SM BR BKN025 OVC050
     FM071200 30005KT P6SM BKN050
     FM071500 31008G16KT P6SM SCT050
     FM072100 30005KT P6SM FEW200
     FM080000 VRB03KT P6SM SCT200=

USA.gov is the U.S. government's official web portal to all federal, state and local government web resources and services.